Time;durP1;ratioP1;P1;durP2;ratioP2;P2;SDS_P1;SDS_P2;PMS_P1;PMS_P2;Temp;Humidity;BMP_temperature;BMP_pressure;BME280_temperature;BME280_humidity;BME280_pressure;Samples;Min_cycle;Max_cycle;Signal;HPM_P1;HPM_P2
2023/04/07 00:00:57;;;;;;;0.65;0.65;;;6.80;99.90;;;;;;5014663;28;20107;-83
2023/04/07 00:03:23;;;;;;;0.50;0.50;;;7.00;99.90;;;;;;4991431;28;20036;-83
2023/04/07 00:05:48;;;;;;;1.27;1.13;;;6.90;99.90;;;;;;4982107;28;20445;-83
2023/04/07 00:08:14;;;;;;;0.50;0.50;;;6.90;99.90;;;;;;5014989;28;20085;-83
2023/04/07 00:10:40;;;;;;;1.77;1.02;;;6.90;99.90;;;;;;5014038;28;20053;-82
2023/04/07 00:13:06;;;;;;;0.50;0.50;;;6.90;99.90;;;;;;5013770;28;20406;-82
2023/04/07 00:15:32;;;;;;;0.40;0.40;;;6.90;99.90;;;;;;5029821;28;20085;-82
2023/04/07 00:17:57;;;;;;;0.60;0.60;;;6.90;99.90;;;;;;5016436;28;20110;-82
2023/04/07 00:20:23;;;;;;;0.50;0.50;;;6.90;99.90;;;;;;5013521;28;20065;-82
2023/04/07 00:22:49;;;;;;;0.50;0.50;;;6.90;99.90;;;;;;5015299;28;20534;-83
2023/04/07 00:25:15;;;;;;;0.93;0.93;;;6.90;99.90;;;;;;5023214;28;20033;-82
2023/04/07 00:27:40;;;;;;;0.82;0.82;;;6.90;99.90;;;;;;5018197;28;20069;-82
2023/04/07 00:30:07;;;;;;;0.95;0.95;;;6.90;99.90;;;;;;5022221;28;20109;-81
2023/04/07 00:32:32;;;;;;;;;;;6.90;99.90;;;;;;5053220;28;20037;-83
2023/04/07 00:34:58;;;;;;;0.38;0.38;;;6.90;99.90;;;;;;5013919;28;19948;-83
2023/04/07 00:37:26;;;;;;;0.52;0.52;;;6.90;99.90;;;;;;5040661;28;20135;-82
2023/04/07 00:39:52;;;;;;;0.50;0.50;;;6.90;99.90;;;;;;5011314;28;20128;-81
2023/04/07 00:42:18;;;;;;;1.60;1.60;;;6.90;99.90;;;;;;5017316;28;20112;-81
2023/04/07 00:44:44;;;;;;;0.60;0.60;;;6.90;99.90;;;;;;5013961;28;20056;-81
2023/04/07 00:47:10;;;;;;;0.65;0.65;;;6.90;99.90;;;;;;5026273;28;20049;-81
2023/04/07 00:49:38;;;;;;;0.57;0.57;;;6.90;99.90;;;;;;5030214;28;20037;-80
2023/04/07 00:52:07;;;;;;;0.60;0.60;;;7.00;99.90;;;;;;4994558;28;20044;-80
2023/04/07 00:54:33;;;;;;;1.90;0.70;;;6.90;99.90;;;;;;5011785;28;20042;-80
2023/04/07 00:56:58;;;;;;;0.82;0.82;;;6.90;99.90;;;;;;5029172;28;20134;-80
2023/04/07 00:59:24;;;;;;;0.50;0.50;;;6.90;99.90;;;;;;5009213;28;20125;-80
2023/04/07 01:02:01;;;;;;;0.63;0.63;;;6.90;99.90;;;;;;5014016;28;20037;-81
2023/04/07 01:04:57;;;;;;;1.23;1.23;;;6.90;99.90;;;;;;5035514;28;20044;-81
2023/04/07 01:07:31;;;;;;;1.10;1.05;;;6.90;99.90;;;;;;5013738;28;20095;-81
2023/04/07 01:10:03;;;;;;;1.98;0.68;;;6.90;99.90;;;;;;4997258;28;20049;-82
2023/04/07 01:13:04;;;;;;;0.73;0.65;;;6.90;99.90;;;;;;5031816;28;20072;-81
2023/04/07 01:15:32;;;;;;;0.68;0.68;;;6.90;99.90;;;;;;5019566;28;20053;-80
2023/04/07 01:18:14;;;;;;;0.82;0.82;;;6.90;99.90;;;;;;5018388;28;20057;-81
2023/04/07 01:20:43;;;;;;;0.60;0.60;;;6.90;99.90;;;;;;5011475;28;20041;-81
2023/04/07 01:23:20;;;;;;;0.57;0.57;;;6.90;99.90;;;;;;5012863;28;20041;-82
2023/04/07 01:25:54;;;;;;;0.40;0.40;;;6.90;99.90;;;;;;5013677;28;20346;-82
2023/04/07 01:28:40;;;;;;;2.50;1.17;;;6.90;99.90;;;;;;5032869;28;20041;-82
2023/04/07 01:31:09;;;;;;;0.50;0.50;;;6.90;99.90;;;;;;5014573;28;20106;-83
2023/04/07 01:33:37;;;;;;;0.60;0.60;;;6.90;99.90;;;;;;5006397;28;20130;-83
2023/04/07 01:36:05;;;;;;;0.40;0.40;;;6.80;99.90;;;;;;5013688;28;20049;-82
2023/04/07 01:38:32;;;;;;;0.60;0.60;;;6.80;99.90;;;;;;5013316;28;20041;-83
2023/04/07 01:40:59;;;;;;;0.73;0.73;;;6.80;99.90;;;;;;5011923;28;20432;-83
2023/04/07 01:43:27;;;;;;;0.57;0.57;;;6.80;99.90;;;;;;5014744;28;20041;-82
2023/04/07 01:45:54;;;;;;;0.45;0.45;;;6.80;99.90;;;;;;5010596;28;20042;-82
2023/04/07 01:48:20;;;;;;;0.57;0.57;;;6.90;99.90;;;;;;5017879;28;20045;-81
2023/04/07 01:50:46;;;;;;;;;;;6.80;99.90;;;;;;5014365;28;20080;-81
2023/04/07 01:53:14;;;;;;;0.73;0.73;;;6.80;99.90;;;;;;5018192;28;19917;-81
2023/04/07 01:55:41;;;;;;;0.63;0.63;;;6.80;99.90;;;;;;5001190;28;20052;-82
2023/04/07 01:58:07;;;;;;;0.47;0.47;;;6.80;99.90;;;;;;5030160;28;20546;-81
2023/04/07 02:00:33;;;;;;;0.52;0.52;;;6.80;99.90;;;;;;5014590;28;20091;-82
2023/04/07 02:03:04;;;;;;;;;;;6.70;99.90;;;;;;5029047;28;20525;-81
2023/04/07 02:05:30;;;;;;;0.47;0.47;;;6.80;99.90;;;;;;5011601;28;20004;-81
2023/04/07 02:08:03;;;;;;;0.50;0.50;;;6.80;99.90;;;;;;5014666;28;20053;-81
2023/04/07 02:10:34;;;;;;;0.88;0.88;;;6.80;99.90;;;;;;5019537;28;20044;-82
2023/04/07 02:13:03;;;;;;;0.65;0.65;;;6.70;99.90;;;;;;4996706;28;20119;-82
2023/04/07 02:15:30;;;;;;;0.57;0.57;;;6.70;99.90;;;;;;5011696;28;20103;-81
2023/04/07 02:17:59;;;;;;;0.60;0.60;;;6.70;99.90;;;;;;5002721;28;20096;-83
2023/04/07 02:20:25;;;;;;;1.02;0.80;;;6.80;99.90;;;;;;5012284;28;20033;-82
2023/04/07 02:22:52;;;;;;;0.60;0.60;;;6.70;99.90;;;;;;5034414;28;20044;-81
2023/04/07 02:25:26;;;;;;;0.47;0.47;;;6.70;99.90;;;;;;5012527;28;20033;-82
2023/04/07 02:27:53;;;;;;;0.50;0.50;;;6.70;99.90;;;;;;5016355;28;20080;-82
2023/04/07 02:30:19;;;;;;;0.82;0.82;;;6.80;99.90;;;;;;5014724;28;20099;-82
2023/04/07 02:32:45;;;;;;;0.50;0.50;;;6.70;99.90;;;;;;4995877;28;20047;-81
2023/04/07 02:35:11;;;;;;;0.70;0.70;;;6.80;99.90;;;;;;5012260;28;20100;-83
2023/04/07 02:37:37;;;;;;;1.08;1.00;;;6.80;99.90;;;;;;5011248;28;20048;-82
2023/04/07 02:40:04;;;;;;;0.50;0.50;;;6.70;99.90;;;;;;5027539;28;20498;-82
2023/04/07 02:42:30;;;;;;;0.63;0.63;;;6.70;99.90;;;;;;5012300;28;20857;-81
2023/04/07 02:44:56;;;;;;;0.40;0.40;;;6.70;99.90;;;;;;4996454;28;20045;-80
2023/04/07 02:47:22;;;;;;;0.45;0.45;;;6.80;99.90;;;;;;5012199;28;20041;-81
2023/04/07 02:49:47;;;;;;;0.43;0.43;;;6.70;99.90;;;;;;5019331;28;20171;-81
2023/04/07 02:52:13;;;;;;;0.60;0.60;;;6.70;99.90;;;;;;5011521;28;20124;-81
2023/04/07 02:54:39;;;;;;;0.50;0.50;;;6.70;99.90;;;;;;5013253;28;20045;-82
2023/04/07 02:57:04;;;;;;;0.55;0.55;;;6.70;99.90;;;;;;5015301;28;20501;-82
2023/04/07 02:59:30;;;;;;;2.60;2.50;;;6.70;99.90;;;;;;5014362;28;20033;-82
2023/04/07 03:01:56;;;;;;;0.50;0.50;;;6.70;99.90;;;;;;5012069;28;20164;-83
2023/04/07 03:04:21;;;;;;;0.60;0.60;;;6.70;99.90;;;;;;5031751;28;20064;-83
2023/04/07 03:06:47;;;;;;;0.93;0.93;;;6.70;99.90;;;;;;5020794;28;20080;-82
2023/04/07 03:09:14;;;;;;;0.43;0.43;;;6.70;99.90;;;;;;5013774;28;20499;-82
2023/04/07 03:11:40;;;;;;;0.50;0.50;;;6.70;99.90;;;;;;5030979;28;20187;-81
2023/04/07 03:14:06;;;;;;;0.50;0.50;;;6.70;99.90;;;;;;5030183;28;20269;-81
2023/04/07 03:16:32;;;;;;;0.50;0.50;;;6.70;99.90;;;;;;4998154;28;20056;-81
2023/04/07 03:18:57;;;;;;;0.60;0.60;;;6.70;99.90;;;;;;5011432;28;20053;-80
2023/04/07 03:21:23;;;;;;;0.70;0.70;;;6.60;99.90;;;;;;5013090;28;20080;-81
2023/04/07 03:23:49;;;;;;;0.35;0.35;;;6.70;99.90;;;;;;4995128;28;20042;-81
2023/04/07 03:26:15;;;;;;;0.50;0.50;;;6.70;99.90;;;;;;5028839;28;20045;-82
2023/04/07 03:28:40;;;;;;;0.77;0.77;;;6.60;99.90;;;;;;4977611;28;20041;-81
2023/04/07 03:31:06;;;;;;;0.60;0.60;;;6.60;99.90;;;;;;5011393;28;20059;-80
2023/04/07 03:33:32;;;;;;;0.65;0.65;;;6.60;99.90;;;;;;5028857;28;20037;-80
2023/04/07 03:35:58;;;;;;;0.60;0.60;;;6.70;99.90;;;;;;5011266;28;20045;-81
2023/04/07 03:38:24;;;;;;;0.60;0.60;;;6.60;99.90;;;;;;5010804;28;20033;-81
2023/04/07 03:40:50;;;;;;;0.55;0.55;;;6.70;99.90;;;;;;5025314;28;20054;-82
2023/04/07 03:43:15;;;;;;;0.60;0.60;;;6.60;99.90;;;;;;5011274;28;20411;-82
2023/04/07 03:45:41;;;;;;;0.52;0.52;;;7.10;99.90;;;;;;5015714;28;20404;-81
2023/04/07 03:48:10;;;;;;;0.73;0.73;;;7.20;99.90;;;;;;5010371;28;20513;-81
2023/04/07 03:50:37;;;;;;;0.40;0.40;;;6.80;99.90;;;;;;5026511;28;20045;-81
2023/04/07 03:53:03;;;;;;;0.57;0.57;;;6.70;99.90;;;;;;5009934;28;20053;-81
2023/04/07 03:55:29;;;;;;;0.32;0.32;;;6.60;99.90;;;;;;5027714;28;20480;-81
2023/04/07 03:57:55;;;;;;;;;;;6.60;99.90;;;;;;5016539;28;20395;-81
2023/04/07 04:00:21;;;;;;;0.50;0.50;;;6.60;99.90;;;;;;5016519;28;19924;-81
2023/04/07 04:02:46;;;;;;;0.60;0.60;;;6.60;99.90;;;;;;5016585;28;20491;-81
2023/04/07 04:05:12;;;;;;;0.80;0.80;;;6.70;99.90;;;;;;5013165;28;20480;-81
2023/04/07 04:07:38;;;;;;;0.60;0.60;;;6.60;99.90;;;;;;5006958;28;20121;-82
2023/04/07 04:10:04;;;;;;;0.60;0.60;;;6.60;99.90;;;;;;5010299;28;20411;-81
2023/04/07 04:12:29;;;;;;;;;;;6.60;99.90;;;;;;5019876;28;20033;-80
2023/04/07 04:14:55;;;;;;;0.65;0.60;;;6.60;99.90;;;;;;5011005;28;19928;-82
2023/04/07 04:17:21;;;;;;;0.40;0.40;;;6.60;99.90;;;;;;5011008;28;20136;-81
2023/04/07 04:19:46;;;;;;;0.75;0.75;;;6.60;99.90;;;;;;5026854;28;20411;-81
2023/04/07 04:22:12;;;;;;;0.50;0.50;;;6.60;99.90;;;;;;5011299;28;20136;-82
2023/04/07 04:24:38;;;;;;;0.77;0.77;;;6.60;99.90;;;;;;4994191;28;20053;-81
2023/04/07 04:27:03;;;;;;;0.60;0.60;;;6.60;99.90;;;;;;5011132;28;20051;-81
2023/04/07 04:29:29;;;;;;;1.25;1.25;;;6.60;99.90;;;;;;5018440;28;20524;-81
2023/04/07 04:31:55;;;;;;;0.50;0.50;;;6.60;99.90;;;;;;5018502;28;20041;-82
2023/04/07 04:34:20;;;;;;;0.80;0.80;;;6.60;99.90;;;;;;5016656;28;20068;-81
2023/04/07 04:36:48;;;;;;;1.05;1.05;;;6.80;99.90;;;;;;5019117;28;20040;-81
2023/04/07 04:39:13;;;;;;;0.50;0.50;;;6.60;99.90;;;;;;5012438;28;20037;-81
2023/04/07 04:41:39;;;;;;;0.65;0.65;;;6.60;99.90;;;;;;5030633;28;20051;-82
2023/04/07 04:44:05;;;;;;;0.77;0.77;;;6.60;99.90;;;;;;5015618;28;20413;-82
2023/04/07 04:46:31;;;;;;;0.50;0.50;;;6.60;99.90;;;;;;5005272;28;20037;-82
2023/04/07 04:48:56;;;;;;;4.28;1.02;;;6.60;99.90;;;;;;5013272;28;20057;-81
2023/04/07 04:51:23;;;;;;;1.33;1.30;;;6.60;99.90;;;;;;5014203;28;20523;-82
2023/04/07 04:53:48;;;;;;;0.60;0.60;;;6.60;99.90;;;;;;5017611;28;20082;-82
2023/04/07 04:56:14;;;;;;;0.63;0.63;;;6.70;99.90;;;;;;5016801;28;20178;-82
2023/04/07 04:58:44;;;;;;;0.85;0.85;;;6.90;99.90;;;;;;5039009;28;20092;-82
2023/04/07 05:01:11;;;;;;;0.73;0.73;;;6.90;99.90;;;;;;5016375;28;20054;-82
2023/04/07 05:03:36;;;;;;;0.88;0.85;;;6.60;99.90;;;;;;5028286;28;20060;-82
2023/04/07 05:06:02;;;;;;;0.98;0.98;;;6.60;99.90;;;;;;5013234;28;20037;-82
2023/04/07 05:08:28;;;;;;;0.50;0.50;;;6.60;99.90;;;;;;4997706;28;20060;-81
2023/04/07 05:10:54;;;;;;;0.40;0.40;;;6.60;99.90;;;;;;5012899;28;20545;-81
2023/04/07 05:13:20;;;;;;;0.60;0.60;;;7.20;99.90;;;;;;5017477;28;20080;-82
2023/04/07 05:15:46;;;;;;;0.40;0.40;;;6.60;99.90;;;;;;5013763;28;20191;-82
2023/04/07 05:18:12;;;;;;;0.60;0.60;;;6.60;99.90;;;;;;5012566;28;20042;-82
2023/04/07 05:20:37;;;;;;;0.90;0.90;;;6.60;99.90;;;;;;5012645;28;20053;-82
2023/04/07 05:23:03;;;;;;;0.50;0.50;;;6.60;99.90;;;;;;5031849;28;20038;-82
2023/04/07 05:25:30;;;;;;;1.00;1.00;;;6.60;99.90;;;;;;5013735;28;20502;-81
2023/04/07 05:27:57;;;;;;;0.60;0.60;;;6.60;99.90;;;;;;5012888;28;20076;-82
2023/04/07 05:30:23;;;;;;;0.50;0.50;;;6.70;99.90;;;;;;5022989;28;20107;-82
2023/04/07 05:32:49;;;;;;;0.65;0.65;;;6.60;99.90;;;;;;5029926;28;20084;-82
2023/04/07 05:35:14;;;;;;;0.60;0.60;;;6.60;99.90;;;;;;5013790;28;20048;-82
2023/04/07 05:37:40;;;;;;;0.63;0.63;;;6.60;99.90;;;;;;5014105;28;20404;-82
2023/04/07 05:40:06;;;;;;;1.20;1.15;;;6.60;99.90;;;;;;5007943;28;20050;-82
2023/04/07 05:42:32;;;;;;;;;;;6.60;99.90;;;;;;4999233;28;20044;-82
2023/04/07 05:44:58;;;;;;;0.60;0.60;;;6.60;99.90;;;;;;5013685;28;19917;-82
2023/04/07 05:47:23;;;;;;;0.65;0.65;;;6.60;99.90;;;;;;5010372;28;20053;-82
2023/04/07 05:49:49;;;;;;;2.90;2.75;;;6.60;99.90;;;;;;5017082;28;20075;-82
2023/04/07 05:52:15;;;;;;;0.60;0.60;;;6.60;99.90;;;;;;5019169;28;20041;-82
2023/04/07 05:54:40;;;;;;;0.70;0.70;;;6.70;99.90;;;;;;5006946;28;21719;-82
2023/04/07 05:57:06;;;;;;;0.60;0.60;;;6.70;99.90;;;;;;5015084;28;20487;-81
2023/04/07 05:59:33;;;;;;;0.70;0.70;;;6.70;99.90;;;;;;4998010;28;20125;-83
2023/04/07 06:01:59;;;;;;;0.40;0.40;;;6.80;99.90;;;;;;5014682;28;20112;-83
2023/04/07 06:04:25;;;;;;;0.50;0.50;;;6.70;99.90;;;;;;5000129;28;20160;-83
2023/04/07 06:06:53;;;;;;;1.15;1.15;;;6.70;99.90;;;;;;5012368;28;20045;-84
2023/04/07 06:09:20;;;;;;;0.90;0.90;;;6.70;99.90;;;;;;5004858;28;20049;-84
2023/04/07 06:11:46;;;;;;;0.55;0.55;;;6.70;99.90;;;;;;5024839;28;20045;-83
2023/04/07 06:14:11;;;;;;;1.60;0.73;;;6.80;99.90;;;;;;5012278;28;20129;-83
2023/04/07 06:16:37;;;;;;;0.50;0.50;;;6.80;99.90;;;;;;4995996;28;20115;-83
2023/04/07 06:19:03;;;;;;;0.45;0.45;;;6.80;99.90;;;;;;5011708;28;20046;-83
2023/04/07 06:21:30;;;;;;;0.50;0.50;;;6.80;99.90;;;;;;5028355;28;20034;-82
2023/04/07 06:23:56;;;;;;;0.50;0.50;;;6.80;99.90;;;;;;5012051;28;20045;-84
2023/04/07 06:26:22;;;;;;;0.55;0.55;;;6.90;99.90;;;;;;5012275;28;20129;-83
2023/04/07 06:28:48;;;;;;;0.60;0.60;;;6.90;99.90;;;;;;5029420;28;20077;-82
2023/04/07 06:31:14;;;;;;;0.50;0.50;;;6.90;99.90;;;;;;5018514;28;20077;-83
2023/04/07 06:33:40;;;;;;;0.50;0.50;;;6.90;99.90;;;;;;4994025;28;20114;-82
2023/04/07 06:36:06;;;;;;;0.40;0.40;;;7.00;99.90;;;;;;5012154;28;20041;-83
2023/04/07 06:38:32;;;;;;;0.50;0.50;;;7.00;99.90;;;;;;5013726;28;20056;-82
2023/04/07 06:40:57;;;;;;;0.50;0.50;;;7.10;99.90;;;;;;5027364;28;20041;-84
2023/04/07 06:43:23;;;;;;;0.50;0.50;;;7.00;99.90;;;;;;5002518;28;20547;-82
2023/04/07 06:45:49;;;;;;;0.90;0.90;;;7.10;99.90;;;;;;5011822;28;20088;-82
2023/04/07 06:48:15;;;;;;;1.40;0.70;;;7.20;99.90;;;;;;5028165;28;20049;-87
2023/04/07 06:50:40;;;;;;;0.90;0.90;;;7.20;99.90;;;;;;5021327;28;20407;-84
2023/04/07 06:53:06;;;;;;;0.80;0.80;;;7.30;99.90;;;;;;5018874;28;20053;-85
2023/04/07 06:55:32;;;;;;;0.60;0.60;;;7.30;99.90;;;;;;4976892;28;20060;-81
2023/04/07 06:57:57;;;;;;;0.70;0.70;;;7.40;99.90;;;;;;5006792;28;20068;-82
2023/04/07 07:00:23;;;;;;;0.73;0.73;;;7.50;99.90;;;;;;5010546;28;20037;-82
2023/04/07 07:02:49;;;;;;;0.40;0.40;;;7.50;99.90;;;;;;4998982;28;20452;-82
2023/04/07 07:05:15;;;;;;;;;;;7.60;99.90;;;;;;5011375;28;20061;-82
2023/04/07 07:07:40;;;;;;;0.68;0.68;;;7.70;99.90;;;;;;5012330;28;19923;-81
2023/04/07 07:10:09;;;;;;;0.88;0.88;;;7.70;99.90;;;;;;5009799;28;20045;-82
2023/04/07 07:12:35;;;;;;;0.40;0.40;;;7.80;99.90;;;;;;4994492;28;20490;-83
2023/04/07 07:15:02;;;;;;;;;;;7.90;99.90;;;;;;5011640;28;22340;-81
2023/04/07 07:17:28;;;;;;;0.40;0.40;;;8.00;99.90;;;;;;5016221;28;19921;-82
2023/04/07 07:19:54;;;;;;;0.38;0.38;;;8.10;99.90;;;;;;5009558;28;20294;-80
2023/04/07 07:22:19;;;;;;;0.40;0.40;;;8.20;99.90;;;;;;5017802;28;20065;-81
2023/04/07 07:24:45;;;;;;;0.40;0.40;;;8.40;99.90;;;;;;4969750;28;20372;-82
2023/04/07 07:27:10;;;;;;;0.32;0.32;;;8.40;99.90;;;;;;5016549;28;20095;-81
2023/04/07 07:29:36;;;;;;;0.40;0.40;;;8.50;99.90;;;;;;5028921;28;20100;-82
2023/04/07 07:32:02;;;;;;;0.50;0.50;;;8.50;99.90;;;;;;5012928;28;20046;-82
2023/04/07 07:34:29;;;;;;;0.75;0.75;;;8.60;99.90;;;;;;5016793;28;20084;-82
2023/04/07 07:36:54;;;;;;;0.85;0.85;;;8.70;99.90;;;;;;5041469;28;20041;-83
2023/04/07 07:39:20;;;;;;;0.43;0.43;;;8.70;99.90;;;;;;5019158;28;20049;-82
2023/04/07 07:41:46;;;;;;;0.50;0.50;;;8.70;99.90;;;;;;5015854;28;20128;-82
2023/04/07 07:44:11;;;;;;;0.63;0.50;;;8.80;99.90;;;;;;5023217;28;20045;-82
2023/04/07 07:46:37;;;;;;;0.52;0.52;;;8.80;99.90;;;;;;5012223;28;20415;-82
2023/04/07 07:49:04;;;;;;;0.47;0.47;;;8.80;99.90;;;;;;5000949;28;20099;-82
2023/04/07 07:51:30;;;;;;;0.40;0.40;;;8.80;99.90;;;;;;5007866;28;20140;-83
2023/04/07 07:53:55;;;;;;;1.40;0.88;;;8.80;99.90;;;;;;5006633;28;20045;-82
2023/04/07 07:56:22;;;;;;;0.47;0.47;;;8.90;99.90;;;;;;5026298;28;20109;-82
2023/04/07 07:58:48;;;;;;;5.15;0.85;;;9.00;99.90;;;;;;5011987;28;20573;-83
2023/04/07 08:01:14;;;;;;;0.40;0.40;;;9.00;99.90;;;;;;5011460;28;20098;-82
2023/04/07 08:03:40;;;;;;;0.70;0.70;;;9.00;99.90;;;;;;5013465;28;20462;-82
2023/04/07 08:06:06;;;;;;;0.60;0.60;;;8.90;99.90;;;;;;5031848;28;20376;-81
2023/04/07 08:08:31;;;;;;;0.35;0.35;;;9.00;99.90;;;;;;5019626;28;20049;-82
2023/04/07 08:10:57;;;;;;;0.70;0.70;;;8.90;99.90;;;;;;5028351;28;20045;-83
2023/04/07 08:13:23;;;;;;;0.30;0.30;;;9.00;99.90;;;;;;5014727;28;20049;-82
2023/04/07 08:15:48;;;;;;;0.43;0.43;;;8.90;99.90;;;;;;5014059;28;20062;-82
2023/04/07 08:18:14;;;;;;;;;;;8.90;99.90;;;;;;5014517;28;20266;-83
2023/04/07 08:20:40;;;;;;;0.40;0.40;;;8.90;99.90;;;;;;5001525;28;20298;-82
2023/04/07 08:23:06;;;;;;;0.95;0.95;;;8.90;99.90;;;;;;5012947;28;20073;-82
2023/04/07 08:25:31;;;;;;;0.95;0.95;;;8.80;99.90;;;;;;5029795;28;20034;-82
2023/04/07 08:27:57;;;;;;;1.15;1.15;;;8.90;99.90;;;;;;4981737;28;20121;-82
2023/04/07 08:30:23;;;;;;;0.80;0.80;;;8.90;99.90;;;;;;5017865;28;20036;-83
2023/04/07 08:32:48;;;;;;;4.07;0.68;;;9.00;99.90;;;;;;4998107;28;20072;-83
2023/04/07 08:35:14;;;;;;;0.38;0.38;;;9.10;99.90;;;;;;5013460;28;20041;-82
2023/04/07 08:37:42;;;;;;;0.50;0.50;;;9.20;99.90;;;;;;5001925;28;20120;-83
2023/04/07 08:40:08;;;;;;;0.45;0.45;;;9.30;99.90;;;;;;5012341;28;20045;-83
2023/04/07 08:42:39;;;;;;;1.40;1.30;;;9.50;99.90;;;;;;5013448;28;20378;-82
2023/04/07 08:45:06;;;;;;;0.60;0.60;;;9.60;99.90;;;;;;5015054;28;20132;-82
2023/04/07 08:47:34;;;;;;;0.70;0.70;;;9.80;99.90;;;;;;5012712;28;20049;-82
2023/04/07 08:50:03;;;;;;;0.73;0.73;;;9.90;99.90;;;;;;5027782;28;20046;-82
2023/04/07 08:52:59;;;;;;;4.38;0.70;;;10.00;99.90;;;;;;5013269;28;20079;-83
2023/04/07 08:55:25;;;;;;;0.73;0.73;;;10.20;99.90;;;;;;4990169;28;20044;-82
2023/04/07 08:57:52;;;;;;;0.50;0.50;;;10.40;99.90;;;;;;5030329;28;20030;-83
2023/04/07 09:00:18;;;;;;;0.38;0.38;;;10.60;99.90;;;;;;5002503;28;20037;-83
2023/04/07 09:02:44;;;;;;;0.80;0.80;;;10.80;99.90;;;;;;5014006;28;20275;-82
2023/04/07 09:05:11;;;;;;;1.38;1.38;;;11.00;99.90;;;;;;5012623;28;20091;-83
2023/04/07 09:07:39;;;;;;;1.23;1.13;;;11.20;99.90;;;;;;5029882;28;20461;-82
2023/04/07 09:10:05;;;;;;;0.40;0.40;;;11.20;99.90;;;;;;5030420;28;20076;-82
2023/04/07 09:12:32;;;;;;;0.55;0.55;;;11.30;99.90;;;;;;5015330;28;20037;-82
2023/04/07 09:14:59;;;;;;;0.38;0.38;;;11.40;99.90;;;;;;5011619;28;20387;-82
2023/04/07 09:17:28;;;;;;;1.42;1.33;;;11.40;99.90;;;;;;5010228;28;20191;-82
2023/04/07 09:19:58;;;;;;;0.50;0.50;;;11.40;99.90;;;;;;5014310;28;20084;-82
2023/04/07 09:22:44;;;;;;;1.35;1.25;;;11.50;99.90;;;;;;5012667;28;20049;-82
2023/04/07 09:25:26;;;;;;;0.55;0.55;;;11.40;99.90;;;;;;5013090;28;20115;-82
2023/04/07 09:28:00;;;;;;;1.70;0.93;;;11.40;99.90;;;;;;5010227;28;20052;-83
2023/04/07 09:30:27;;;;;;;1.77;0.60;;;11.50;99.90;;;;;;5013333;28;20133;-82
2023/04/07 09:32:53;;;;;;;0.50;0.50;;;11.50;99.90;;;;;;5020631;28;20041;-83
2023/04/07 09:35:21;;;;;;;0.45;0.45;;;11.50;99.90;;;;;;5012594;28;20395;-82
2023/04/07 09:38:13;;;;;;;0.50;0.50;;;11.50;99.90;;;;;;5014767;28;20045;-81
2023/04/07 09:40:39;;;;;;;0.70;0.70;;;11.40;99.90;;;;;;5009898;28;20051;-82
2023/04/07 09:43:13;;;;;;;0.63;0.63;;;11.40;99.90;;;;;;5013910;28;20416;-82
2023/04/07 09:45:39;;;;;;;1.17;1.10;;;11.40;99.90;;;;;;5026433;28;20048;-82
2023/04/07 09:48:19;;;;;;;0.52;0.52;;;11.50;99.90;;;;;;5028028;28;20037;-82
2023/04/07 09:50:48;;;;;;;0.50;0.50;;;11.60;99.90;;;;;;5020492;28;20095;-82
2023/04/07 09:53:15;;;;;;;1.02;0.70;;;11.60;99.90;;;;;;5000551;28;20037;-83
2023/04/07 09:55:42;;;;;;;0.35;0.35;;;11.50;99.90;;;;;;4985548;28;20572;-82
2023/04/07 09:58:11;;;;;;;0.60;0.60;;;11.50;99.90;;;;;;5009659;28;20091;-82
2023/04/07 10:00:37;;;;;;;1.05;0.85;;;11.50;99.90;;;;;;5029334;28;20114;-80
2023/04/07 10:03:03;;;;;;;0.32;0.32;;;11.60;99.90;;;;;;5016387;28;20072;-82
2023/04/07 10:05:30;;;;;;;0.73;0.73;;;11.50;99.90;;;;;;5012345;28;20138;-82
2023/04/07 10:07:56;;;;;;;0.43;0.43;;;11.50;99.90;;;;;;5011800;28;20554;-81
2023/04/07 10:10:22;;;;;;;1.75;0.55;;;11.40;99.90;;;;;;5010398;28;20065;-81
2023/04/07 10:12:52;;;;;;;0.50;0.50;;;11.40;99.90;;;;;;5014355;28;20053;-82
2023/04/07 10:15:18;;;;;;;0.80;0.60;;;11.40;99.90;;;;;;5013906;28;20042;-81
2023/04/07 10:17:47;;;;;;;0.50;0.50;;;11.40;99.90;;;;;;5011107;28;20771;-82
2023/04/07 10:20:17;;;;;;;0.98;0.52;;;11.40;99.90;;;;;;5007502;28;20127;-81
2023/04/07 10:22:45;;;;;;;0.40;0.40;;;11.40;99.90;;;;;;4987485;28;20102;-82
2023/04/07 10:25:15;;;;;;;1.50;1.40;;;11.40;99.90;;;;;;5014368;28;20045;-82
2023/04/07 10:28:12;;;;;;;1.00;1.00;;;11.40;99.90;;;;;;5013280;28;20053;-81
2023/04/07 10:30:39;;;;;;;0.40;0.40;;;11.50;99.90;;;;;;5009987;28;20085;-81
2023/04/07 10:33:04;;;;;;;0.45;0.45;;;11.70;99.90;;;;;;5010039;28;20049;-82
2023/04/07 10:36:05;;;;;;;0.55;0.55;;;11.80;99.90;;;;;;5009130;28;20044;-82
2023/04/07 10:38:31;;;;;;;0.30;0.30;;;12.00;99.90;;;;;;5012015;28;20126;-81
2023/04/07 10:40:57;;;;;;;0.73;0.60;;;12.20;99.90;;;;;;5027819;28;20041;-82
2023/04/07 10:43:52;;;;;;;0.47;0.47;;;12.40;99.90;;;;;;5009575;28;20479;-82
2023/04/07 10:46:18;;;;;;;0.40;0.40;;;12.60;99.90;;;;;;4993203;28;20041;-82
2023/04/07 10:49:10;;;;;;;3.10;1.02;;;12.70;99.90;;;;;;5011735;28;20122;-81
2023/04/07 10:51:36;;;;;;;0.90;0.85;;;12.80;99.90;;;;;;5013301;28;20725;-82
2023/04/07 10:54:21;;;;;;;1.05;1.05;;;13.10;99.90;;;;;;5017009;28;20143;-81
2023/04/07 10:57:02;;;;;;;0.85;0.85;;;13.40;99.90;;;;;;5008524;28;20046;-82
2023/04/07 10:59:32;;;;;;;1.20;1.20;;;13.70;99.90;;;;;;5008499;28;20042;-82
2023/04/07 11:02:24;;;;;;;0.43;0.40;;;13.80;99.90;;;;;;5009889;28;20044;-82
2023/04/07 11:04:50;;;;;;;0.40;0.40;;;13.70;99.90;;;;;;5021671;28;20064;-82
2023/04/07 11:07:17;;;;;;;1.80;1.67;;;13.40;99.90;;;;;;4994310;28;20049;-83
2023/04/07 11:09:42;;;;;;;0.47;0.40;;;13.20;99.90;;;;;;4991631;28;20108;-83
2023/04/07 11:12:21;;;;;;;0.30;0.30;;;13.20;99.90;;;;;;5012746;28;20049;-83
2023/04/07 11:14:46;;;;;;;0.40;0.40;;;13.10;99.90;;;;;;5026851;28;20515;-82
2023/04/07 11:17:16;;;;;;;0.45;0.45;;;13.20;99.90;;;;;;5017355;28;20099;-83
2023/04/07 11:19:52;;;;;;;0.45;0.45;;;13.30;99.90;;;;;;5011239;28;20511;-82
2023/04/07 11:22:18;;;;;;;2.93;0.57;;;13.10;99.90;;;;;;5024954;28;20038;-83
2023/04/07 11:24:45;;;;;;;;;;;13.60;99.90;;;;;;5011306;28;20084;-82
2023/04/07 11:27:14;;;;;;;0.20;0.20;;;13.60;99.90;;;;;;4996074;28;19927;-82
2023/04/07 11:29:40;;;;;;;0.25;0.25;;;13.70;99.90;;;;;;5011597;28;20096;-82
2023/04/07 11:32:06;;;;;;;0.70;0.70;;;13.80;99.90;;;;;;5015157;28;20150;-82
2023/04/07 11:34:34;;;;;;;0.30;0.30;;;13.80;99.90;;;;;;5017416;28;20045;-82
2023/04/07 11:37:20;;;;;;;0.45;0.45;;;13.70;99.90;;;;;;5011955;28;20045;-82
2023/04/07 11:39:58;;;;;;;0.35;0.35;;;13.60;99.90;;;;;;5011590;28;20037;-83
2023/04/07 11:42:34;;;;;;;1.08;1.08;;;13.60;99.90;;;;;;4980462;28;20128;-82
2023/04/07 11:45:00;;;;;;;;;;;13.60;99.90;;;;;;5017506;28;20056;-82
2023/04/07 11:47:37;;;;;;;1.65;1.55;;;13.70;99.90;;;;;;4999759;28;19921;-81
2023/04/07 11:50:02;;;;;;;0.20;0.20;;;13.70;99.90;;;;;;5026061;28;20128;-82
2023/04/07 11:52:39;;;;;;;0.40;0.40;;;13.80;99.90;;;;;;5027576;28;20573;-82
2023/04/07 11:55:05;;;;;;;0.50;0.50;;;13.80;99.90;;;;;;5010624;28;20095;-82
2023/04/07 11:57:31;;;;;;;0.40;0.40;;;14.00;99.90;;;;;;5010402;28;20030;-83
2023/04/07 12:00:11;;;;;;;0.50;0.50;;;14.10;99.90;;;;;;5005932;28;20056;-83
2023/04/07 12:02:37;;;;;;;0.50;0.50;;;14.50;99.90;;;;;;4994098;28;20050;-82
2023/04/07 12:05:03;;;;;;;;;;;14.90;99.90;;;;;;5028940;28;20068;-82
2023/04/07 12:07:28;;;;;;;0.60;0.60;;;15.10;99.90;;;;;;5017202;28;19920;-82
2023/04/07 12:09:54;;;;;;;0.75;0.75;;;15.20;99.90;;;;;;5010923;28;20564;-82
2023/04/07 12:12:31;;;;;;;;;;;15.10;99.90;;;;;;5014778;28;20139;-82
2023/04/07 12:14:57;;;;;;;1.02;0.82;;;14.80;99.90;;;;;;5016274;28;20340;-82
2023/04/07 12:17:24;;;;;;;;;;;14.50;99.90;;;;;;5008896;28;20049;-81
2023/04/07 12:19:50;;;;;;;0.40;0.40;;;14.40;99.90;;;;;;4996974;28;20070;-81
2023/04/07 12:22:16;;;;;;;;;;;14.30;99.90;;;;;;5013327;28;20532;-82
2023/04/07 12:24:41;;;;;;;0.52;0.50;;;14.20;99.90;;;;;;5014850;28;19928;-82
2023/04/07 12:27:07;;;;;;;1.10;1.08;;;14.20;99.90;;;;;;5008796;28;20052;-82
2023/04/07 12:29:34;;;;;;;0.47;0.45;;;14.30;99.90;;;;;;5007401;28;20050;-81
2023/04/07 12:31:59;;;;;;;1.23;1.20;;;14.40;99.90;;;;;;5014950;28;20044;-82
2023/04/07 12:34:26;;;;;;;0.45;0.45;;;14.40;99.90;;;;;;5010288;28;20060;-82
2023/04/07 12:36:52;;;;;;;3.75;0.80;;;14.30;99.90;;;;;;5013208;28;20401;-82
2023/04/07 12:39:18;;;;;;;0.40;0.40;;;14.30;99.90;;;;;;5011068;28;20037;-82
2023/04/07 12:41:48;;;;;;;0.90;0.85;;;14.30;99.90;;;;;;5012563;28;20040;-81
2023/04/07 12:44:14;;;;;;;0.60;0.60;;;14.30;99.90;;;;;;5012170;28;20081;-82
2023/04/07 12:46:42;;;;;;;1.02;0.77;;;14.30;99.90;;;;;;5012113;28;20077;-82
2023/04/07 12:49:07;;;;;;;0.88;0.73;;;14.20;99.90;;;;;;5017932;28;20087;-82
2023/04/07 12:51:33;;;;;;;0.70;0.65;;;14.10;99.90;;;;;;5016370;28;20068;-81
2023/04/07 12:54:03;;;;;;;1.92;0.50;;;14.00;99.90;;;;;;5035523;28;20121;-82
2023/04/07 12:56:29;;;;;;;0.40;0.40;;;14.00;99.90;;;;;;5026914;28;20111;-82
2023/04/07 12:58:55;;;;;;;1.20;1.10;;;14.00;99.90;;;;;;5016398;28;20053;-82
2023/04/07 13:01:22;;;;;;;2.30;0.40;;;14.10;99.90;;;;;;5015531;28;20053;-83